Terminal Aerodrome Forecast
Issued by NWS

Home | Current Version | Previous Version | Text Only | Print | Product List | Glossary On
Versions: 1 2 3 4 5 6 7 8 9 10 11 12 13 14 15 16 17 18 19 20
000
FTUS41 KILN 241300 AAA
TAFLUK
TAF AMD
KLUK 241329Z 2413/2512 04010KT P6SM BKN025
     FM242300 04003KT P6SM SKC
     FM250600 00000KT 3SM BR SKC
     FM250800 00000KT 1SM BR SKC=

USA.gov is the U.S. government's official web portal to all federal, state and local government web resources and services.